Time;durP1;ratioP1;P1;durP2;ratioP2;P2;SDS_P1;SDS_P2;PMS_P1;PMS_P2;Temp;Humidity;BMP_temperature;BMP_pressure;BME280_temperature;BME280_humidity;BME280_pressure;Samples;Min_cycle;Max_cycle;Signal;HPM_P1;HPM_P2
2021/05/26 00:03:09;;;;;;;5.93;1.63;;;;;;;;;;7026467;28;20047;-86
2021/05/26 00:06:29;;;;;;;9.32;1.60;;;;;;;;;;7012802;28;20462;-86
2021/05/26 00:09:49;;;;;;;11.00;1.60;;;;;;;;;;7008758;28;20134;-87
2021/05/26 00:13:10;;;;;;;6.90;1.75;;;;;;;;;;7026561;28;20044;-87
2021/05/26 00:16:31;;;;;;;3.92;1.48;;;;;;;;;;7027010;28;20087;-87
2021/05/26 00:19:52;;;;;;;5.18;1.67;;;;;;;;;;7026348;28;20036;-87
2021/05/26 00:23:12;;;;;;;6.93;1.52;;;;;;;;;;7013753;28;20446;-88
2021/05/26 00:26:33;;;;;;;6.55;1.98;;;;;;;;;;7019348;28;20037;-88
2021/05/26 00:29:55;;;;;;;9.57;2.03;;;;;;;;;;7167953;22;20026;-88
2021/05/26 00:33:16;;;;;;;6.57;1.50;;;;;;;;;;7094576;27;20449;-87
2021/05/26 00:36:36;;;;;;;2.38;1.27;;;;;;;;;;7085873;27;20045;-87
2021/05/26 00:39:57;;;;;;;6.95;1.73;;;;;;;;;;7106151;27;20046;-88
2021/05/26 00:43:17;;;;;;;6.75;1.52;;;;;;;;;;7099729;27;20049;-87
2021/05/26 00:46:47;;;;;;;9.38;1.65;;;;;;;;;;7097126;27;20043;-87
2021/05/26 00:50:10;;;;;;;2.28;1.30;;;;;;;;;;7083905;27;20043;-87
2021/05/26 00:53:32;;;;;;;5.28;1.73;;;;;;;;;;7091169;27;20081;-88
2021/05/26 00:56:53;;;;;;;5.43;1.35;;;;;;;;;;7096195;27;20058;-87
2021/05/26 01:00:15;;;;;;;2.75;1.38;;;;;;;;;;7098549;27;20075;-87
2021/05/26 01:03:35;;;;;;;3.65;1.77;;;;;;;;;;7106935;27;20111;-86
2021/05/26 01:06:56;;;;;;;4.03;1.27;;;;;;;;;;7110865;27;20445;-86
2021/05/26 01:10:17;;;;;;;3.55;1.45;;;;;;;;;;7096253;27;20134;-84
2021/05/26 01:13:38;;;;;;;4.30;1.20;;;;;;;;;;7086595;27;20561;-86
2021/05/26 01:16:58;;;;;;;8.18;1.63;;;;;;;;;;7091885;27;20051;-86
2021/05/26 01:20:22;;;;;;;2.90;1.13;;;;;;;;;;7095311;27;20634;-86
2021/05/26 01:23:44;;;;;;;2.60;1.40;;;;;;;;;;7102158;27;20055;-86
2021/05/26 01:27:05;;;;;;;4.55;1.65;;;;;;;;;;7105708;27;20389;-87
2021/05/26 01:30:25;;;;;;;3.35;1.30;;;;;;;;;;7110557;27;20488;-87
2021/05/26 01:33:46;;;;;;;4.95;1.40;;;;;;;;;;7105058;27;20039;-87
2021/05/26 01:37:07;;;;;;;2.15;1.10;;;;;;;;;;7106704;27;20043;-86
2021/05/26 01:40:27;;;;;;;7.15;1.77;;;;;;;;;;7099458;27;20064;-86
2021/05/26 01:43:47;;;;;;;2.25;1.20;;;;;;;;;;7106775;27;20158;-87
2021/05/26 01:47:08;;;;;;;3.50;1.65;;;;;;;;;;7087167;27;20095;-87
2021/05/26 01:50:28;;;;;;;3.13;1.25;;;;;;;;;;7083253;27;20397;-88
2021/05/26 01:53:51;;;;;;;4.82;1.13;;;;;;;;;;7064231;27;20134;-86
2021/05/26 01:57:13;;;;;;;2.45;1.15;;;;;;;;;;7097646;27;20039;-87
2021/05/26 02:00:34;;;;;;;5.45;1.52;;;;;;;;;;7104582;27;20047;-87
2021/05/26 02:03:56;;;;;;;2.33;1.10;;;;;;;;;;7107556;27;20418;-88
2021/05/26 02:07:16;;;;;;;4.70;1.58;;;;;;;;;;7086568;27;20054;-88
2021/05/26 02:14:15;;;;;;;2.08;1.23;;;;;;;;;;7103387;27;20055;-88
2021/05/26 02:17:36;;;;;;;2.95;1.30;;;;;;;;;;7082437;27;20171;-88
2021/05/26 02:20:56;;;;;;;7.90;1.27;;;;;;;;;;7104884;27;20114;-88
2021/05/26 02:24:17;;;;;;;11.43;1.42;;;;;;;;;;7107319;27;20498;-88
2021/05/26 02:27:37;;;;;;;6.30;1.40;;;;;;;;;;7083671;27;20479;-87
2021/05/26 02:30:58;;;;;;;3.58;1.20;;;;;;;;;;7085050;27;20131;-88
2021/05/26 02:34:18;;;;;;;6.57;1.10;;;;;;;;;;7106901;27;20046;-87
2021/05/26 02:37:39;;;;;;;2.05;1.30;;;;;;;;;;7091817;27;20099;-87
2021/05/26 02:40:59;;;;;;;2.75;1.10;;;;;;;;;;7076216;27;20059;-85
2021/05/26 02:44:20;;;;;;;5.65;1.15;;;;;;;;;;7084925;27;20189;-85
2021/05/26 02:47:41;;;;;;;3.58;1.27;;;;;;;;;;7077294;27;20115;-86
2021/05/26 02:51:01;;;;;;;2.65;1.27;;;;;;;;;;7093584;27;20039;-85
2021/05/26 02:54:22;;;;;;;0.82;0.82;;;;;;;;;;7107849;27;20488;-85
2021/05/26 02:57:43;;;;;;;1.88;1.10;;;;;;;;;;7094027;27;20400;-86
2021/05/26 03:01:03;;;;;;;1.80;1.25;;;;;;;;;;7082802;27;20075;-86
2021/05/26 03:04:23;;;;;;;2.25;1.20;;;;;;;;;;7090908;27;20054;-87
2021/05/26 03:07:44;;;;;;;2.72;0.90;;;;;;;;;;7086613;27;20438;-87
2021/05/26 03:11:05;;;;;;;1.45;0.95;;;;;;;;;;7105701;27;20074;-87
2021/05/26 03:14:25;;;;;;;1.38;1.00;;;;;;;;;;7096790;27;20045;-86
2021/05/26 03:17:46;;;;;;;1.80;1.20;;;;;;;;;;7085134;27;20047;-86
2021/05/26 03:21:08;;;;;;;2.72;1.00;;;;;;;;;;7105138;27;20126;-87
2021/05/26 03:24:28;;;;;;;4.30;1.00;;;;;;;;;;7103571;27;20035;-87
2021/05/26 03:27:48;;;;;;;4.47;1.20;;;;;;;;;;7099069;27;20047;-86
2021/05/26 03:31:09;;;;;;;3.95;1.05;;;;;;;;;;7103247;27;20074;-86
2021/05/26 03:34:29;;;;;;;1.67;1.00;;;;;;;;;;7098978;27;20050;-85
2021/05/26 03:37:50;;;;;;;4.47;1.30;;;;;;;;;;7111418;27;20051;-86
2021/05/26 03:41:10;;;;;;;1.77;0.95;;;;;;;;;;7107706;27;20058;-86
2021/05/26 03:44:31;;;;;;;2.38;1.00;;;;;;;;;;7101171;27;20078;-86
2021/05/26 03:47:51;;;;;;;1.50;1.13;;;;;;;;;;7109783;27;20055;-85
2021/05/26 03:51:11;;;;;;;1.13;0.95;;;;;;;;;;7102272;27;20045;-86
2021/05/26 03:54:34;;;;;;;3.47;1.23;;;;;;;;;;7111629;27;20491;-86
2021/05/26 03:57:54;;;;;;;1.92;1.05;;;;;;;;;;7109725;27;20042;-86
2021/05/26 04:01:15;;;;;;;1.15;0.93;;;;;;;;;;7099058;27;20150;-87
2021/05/26 04:04:38;;;;;;;1.88;1.45;;;;;;;;;;7105707;27;20407;-87
2021/05/26 04:07:59;;;;;;;8.07;1.17;;;;;;;;;;7107229;27;20433;-87
2021/05/26 04:11:19;;;;;;;1.00;0.90;;;;;;;;;;7098596;27;20461;-87
2021/05/26 04:14:40;;;;;;;1.40;1.05;;;;;;;;;;7106202;27;20488;-86
2021/05/26 04:18:07;;;;;;;1.98;1.00;;;;;;;;;;7098855;27;20101;-86
2021/05/26 04:21:27;;;;;;;2.92;1.27;;;;;;;;;;7106404;27;20042;-86
2021/05/26 04:24:47;;;;;;;2.08;0.93;;;;;;;;;;7109229;27;20520;-87
2021/05/26 04:28:08;;;;;;;1.00;0.90;;;;;;;;;;7101829;27;20050;-86
2021/05/26 04:31:29;;;;;;;1.33;0.98;;;;;;;;;;7105314;27;20047;-86
2021/05/26 04:34:50;;;;;;;1.67;1.30;;;;;;;;;;7075747;27;20039;-86
2021/05/26 04:38:12;;;;;;;2.15;0.75;;;;;;;;;;7085188;27;20047;-86
2021/05/26 04:41:32;;;;;;;1.88;1.00;;;;;;;;;;7086463;27;20039;-86
2021/05/26 04:44:52;;;;;;;1.13;1.00;;;;;;;;;;7093105;27;20046;-86
2021/05/26 04:48:13;;;;;;;5.72;1.00;;;;;;;;;;7096292;27;20059;-86
2021/05/26 04:51:33;;;;;;;0.80;0.80;;;;;;;;;;7109440;27;20149;-86
2021/05/26 04:54:54;;;;;;;1.02;0.90;;;;;;;;;;7097606;27;20045;-83
2021/05/26 04:58:15;;;;;;;5.82;1.00;;;;;;;;;;7106266;27;20047;-83
2021/05/26 05:01:35;;;;;;;1.52;1.00;;;;;;;;;;7086930;27;20046;-85
2021/05/26 05:04:56;;;;;;;0.93;0.63;;;;;;;;;;7097945;27;20098;-83
2021/05/26 05:08:16;;;;;;;1.05;0.63;;;;;;;;;;7099080;27;20548;-83
2021/05/26 05:11:37;;;;;;;3.90;1.27;;;;;;;;;;7104460;27;20551;-82
2021/05/26 05:14:57;;;;;;;3.63;0.90;;;;;;;;;;7083555;27;20035;-81
2021/05/26 05:18:18;;;;;;;4.53;0.80;;;;;;;;;;7095042;27;20057;-82
2021/05/26 05:21:38;;;;;;;9.57;1.40;;;;;;;;;;7103888;27;20043;-81
2021/05/26 05:24:58;;;;;;;4.82;1.00;;;;;;;;;;7090470;27;20050;-78
2021/05/26 05:28:19;;;;;;;3.70;1.30;;;;;;;;;;7096592;27;20070;-78
2021/05/26 05:31:39;;;;;;;3.38;0.95;;;;;;;;;;7103817;27;20045;-78
2021/05/26 05:35:00;;;;;;;7.20;1.15;;;;;;;;;;7095750;27;20138;-77
2021/05/26 05:38:20;;;;;;;5.68;2.70;;;;;;;;;;7087258;27;20096;-77
2021/05/26 05:41:43;;;;;;;2.95;2.65;;;;;;;;;;7095344;27;20039;-81
2021/05/26 05:45:05;;;;;;;3.85;2.88;;;;;;;;;;7095774;27;20145;-78
2021/05/26 05:48:25;;;;;;;13.20;1.20;;;;;;;;;;7084409;27;20042;-79
2021/05/26 05:51:46;;;;;;;7.68;6.97;;;;;;;;;;7089253;27;20088;-79
2021/05/26 05:55:07;;;;;;;7.63;6.90;;;;;;;;;;7107699;27;20197;-78
2021/05/26 05:58:28;;;;;;;3.65;1.42;;;;;;;;;;7100852;27;20062;-79
2021/05/26 06:01:48;;;;;;;3.85;1.48;;;;;;;;;;7101969;27;20047;-79
2021/05/26 06:05:12;;;;;;;2.17;1.52;;;;;;;;;;7102492;27;20051;-79
2021/05/26 06:08:33;;;;;;;4.70;1.30;;;;;;;;;;7105090;27;20085;-82
2021/05/26 06:11:55;;;;;;;3.90;1.30;;;;;;;;;;7106503;27;20043;-83
2021/05/26 06:15:16;;;;;;;3.42;0.93;;;;;;;;;;7104716;27;20042;-76
2021/05/26 06:18:36;;;;;;;3.47;1.20;;;;;;;;;;7077852;27;20451;-77
2021/05/26 06:21:57;;;;;;;11.18;1.70;;;;;;;;;;7102626;27;20159;-78
2021/05/26 06:25:17;;;;;;;5.85;1.13;;;;;;;;;;7094996;27;20045;-77
2021/05/26 06:28:38;;;;;;;4.97;1.20;;;;;;;;;;7097054;27;20054;-78
2021/05/26 06:31:58;;;;;;;1.73;0.85;;;;;;;;;;7082357;27;20058;-79
2021/05/26 06:35:18;;;;;;;5.32;1.05;;;;;;;;;;7080675;27;20069;-78
2021/05/26 06:38:39;;;;;;;2.15;1.23;;;;;;;;;;7097266;27;20369;-81
2021/05/26 06:42:00;;;;;;;7.20;1.10;;;;;;;;;;7097959;27;20466;-78
2021/05/26 06:45:20;;;;;;;6.47;0.93;;;;;;;;;;7093001;27;20047;-79
2021/05/26 06:48:41;;;;;;;8.95;1.05;;;;;;;;;;7108534;27;20065;-78
2021/05/26 06:52:01;;;;;;;3.30;0.90;;;;;;;;;;7100342;27;20054;-78
2021/05/26 06:55:22;;;;;;;2.53;1.13;;;;;;;;;;7093664;27;20512;-78
2021/05/26 06:58:42;;;;;;;3.20;0.95;;;;;;;;;;7093589;27;20043;-79
2021/05/26 07:02:03;;;;;;;1.45;1.17;;;;;;;;;;7102932;27;20039;-78
2021/05/26 07:05:23;;;;;;;5.35;1.05;;;;;;;;;;7096980;27;20055;-80
2021/05/26 07:08:44;;;;;;;2.60;0.80;;;;;;;;;;7065938;28;20047;-80
2021/05/26 07:12:05;;;;;;;3.88;1.35;;;;;;;;;;7080142;28;20055;-80
2021/05/26 07:15:26;;;;;;;6.10;0.90;;;;;;;;;;7071281;28;20109;-80
2021/05/26 07:18:48;;;;;;;6.85;1.35;;;;;;;;;;7079655;28;20043;-79
2021/05/26 07:22:09;;;;;;;1.60;0.75;;;;;;;;;;7064494;28;20047;-79
2021/05/26 07:25:29;;;;;;;4.88;0.98;;;;;;;;;;7075473;27;20112;-81
2021/05/26 07:28:50;;;;;;;4.18;1.20;;;;;;;;;;7062733;28;20134;-80
2021/05/26 07:32:10;;;;;;;2.30;1.08;;;;;;;;;;7049429;28;20138;-79
2021/05/26 07:35:31;;;;;;;3.80;0.80;;;;;;;;;;7078271;28;20047;-80
2021/05/26 07:38:52;;;;;;;3.08;1.00;;;;;;;;;;7073655;28;20443;-81
2021/05/26 07:42:14;;;;;;;3.53;1.15;;;;;;;;;;7059443;28;20051;-80
2021/05/26 07:45:35;;;;;;;5.30;1.05;;;;;;;;;;7076517;28;20055;-80
2021/05/26 07:48:55;;;;;;;4.57;1.25;;;;;;;;;;7076430;28;20231;-81
2021/05/26 07:52:19;;;;;;;1.92;1.20;;;;;;;;;;7078095;28;20043;-79
2021/05/26 07:55:40;;;;;;;3.53;1.05;;;;;;;;;;7077584;28;20047;-79
2021/05/26 07:59:01;;;;;;;1.38;1.00;;;;;;;;;;7073768;28;20176;-80
2021/05/26 08:02:21;;;;;;;1.85;0.80;;;;;;;;;;7075556;28;20043;-80
2021/05/26 08:05:42;;;;;;;6.72;1.08;;;;;;;;;;7077702;28;20104;-80
2021/05/26 08:09:04;;;;;;;3.15;1.02;;;;;;;;;;7079736;27;20057;-80
2021/05/26 08:12:24;;;;;;;4.05;1.02;;;;;;;;;;7080522;28;20039;-80
2021/05/26 08:15:45;;;;;;;3.00;1.08;;;;;;;;;;7082669;28;20100;-80
2021/05/26 08:19:05;;;;;;;1.10;0.82;;;;;;;;;;7045095;28;20059;-81
2021/05/26 08:22:26;;;;;;;3.05;0.93;;;;;;;;;;7076793;28;20046;-81
2021/05/26 08:25:46;;;;;;;3.03;1.02;;;;;;;;;;7078405;28;20158;-80
2021/05/26 08:29:07;;;;;;;5.40;1.13;;;;;;;;;;7063101;28;20045;-80
2021/05/26 08:32:28;;;;;;;2.22;1.00;;;;;;;;;;7081376;28;20500;-79
2021/05/26 08:35:48;;;;;;;2.08;0.90;;;;;;;;;;7070205;28;20051;-78
2021/05/26 08:39:08;;;;;;;5.03;0.88;;;;;;;;;;7074824;28;20052;-78
2021/05/26 08:42:30;;;;;;;2.13;0.90;;;;;;;;;;7079510;28;20392;-78
2021/05/26 08:45:51;;;;;;;1.30;1.00;;;;;;;;;;7047148;28;20059;-80
2021/05/26 08:49:13;;;;;;;2.55;1.13;;;;;;;;;;7067668;28;20067;-79
2021/05/26 08:52:33;;;;;;;1.65;0.90;;;;;;;;;;7063724;28;20488;-79
2021/05/26 08:55:55;;;;;;;1.83;1.00;;;;;;;;;;7080184;28;20082;-80
2021/05/26 08:59:16;;;;;;;1.52;0.93;;;;;;;;;;7064140;28;20043;-79
2021/05/26 09:02:36;;;;;;;2.60;0.90;;;;;;;;;;7069268;28;20099;-79
2021/05/26 09:05:57;;;;;;;1.67;1.00;;;;;;;;;;7081666;28;20047;-80
2021/05/26 09:09:18;;;;;;;1.27;1.10;;;;;;;;;;7077852;28;20036;-79
2021/05/26 09:12:42;;;;;;;3.08;0.90;;;;;;;;;;7067948;28;20043;-79
2021/05/26 09:16:07;;;;;;;2.25;1.17;;;;;;;;;;7049594;28;20043;-79
2021/05/26 09:19:27;;;;;;;1.63;0.82;;;;;;;;;;7065639;28;20409;-78
2021/05/26 09:23:08;;;;;;;1.70;1.05;;;;;;;;;;7066244;28;20469;-78
2021/05/26 09:26:51;;;;;;;3.30;0.88;;;;;;;;;;7066017;28;20086;-79
2021/05/26 09:30:12;;;;;;;1.55;0.95;;;;;;;;;;7065770;28;20096;-78
2021/05/26 09:33:51;;;;;;;1.38;0.80;;;;;;;;;;7081331;28;20126;-79
2021/05/26 09:37:13;;;;;;;1.55;0.90;;;;;;;;;;7079174;28;20366;-78
2021/05/26 09:40:38;;;;;;;2.72;0.80;;;;;;;;;;7068192;28;20067;-80
2021/05/26 09:44:09;;;;;;;3.40;1.00;;;;;;;;;;7081030;28;20078;-79
2021/05/26 09:47:44;;;;;;;2.03;0.98;;;;;;;;;;7078005;28;20043;-79
2021/05/26 09:51:05;;;;;;;1.45;0.90;;;;;;;;;;7069705;28;20172;-79
2021/05/26 09:54:29;;;;;;;1.58;1.00;;;;;;;;;;7081487;28;20051;-78
2021/05/26 09:57:51;;;;;;;0.80;0.80;;;;;;;;;;7080653;28;20079;-80
2021/05/26 10:01:11;;;;;;;1.70;0.98;;;;;;;;;;7076763;28;20361;-81
2021/05/26 10:04:32;;;;;;;1.90;1.00;;;;;;;;;;7051839;28;20400;-81
2021/05/26 10:07:56;;;;;;;2.15;0.98;;;;;;;;;;7066640;28;20063;-79
2021/05/26 10:11:17;;;;;;;3.42;1.02;;;;;;;;;;7068675;28;20061;-82
2021/05/26 10:14:38;;;;;;;1.00;0.90;;;;;;;;;;7041099;28;20374;-82
2021/05/26 10:18:00;;;;;;;7.57;1.20;;;;;;;;;;7051932;28;20047;-78
2021/05/26 10:21:21;;;;;;;1.77;1.00;;;;;;;;;;7056654;28;20058;-79
2021/05/26 10:24:45;;;;;;;3.92;1.20;;;;;;;;;;7071125;28;20050;-82
2021/05/26 10:28:05;;;;;;;2.00;1.10;;;;;;;;;;7051759;28;20081;-79
2021/05/26 10:31:35;;;;;;;1.88;1.15;;;;;;;;;;7070956;28;20039;-79
2021/05/26 10:34:56;;;;;;;5.68;1.13;;;;;;;;;;7077086;28;20477;-79
2021/05/26 10:38:16;;;;;;;2.80;1.23;;;;;;;;;;7076080;28;20378;-80
2021/05/26 10:41:51;;;;;;;3.67;1.13;;;;;;;;;;7074396;28;20485;-83
2021/05/26 10:45:12;;;;;;;1.15;0.90;;;;;;;;;;7070942;28;20043;-81
2021/05/26 10:48:38;;;;;;;4.10;1.50;;;;;;;;;;7054190;28;20058;-80
2021/05/26 10:51:59;;;;;;;1.42;1.15;;;;;;;;;;7072321;28;20130;-79
2021/05/26 10:55:47;;;;;;;1.85;1.20;;;;;;;;;;7078556;28;20039;-79
2021/05/26 10:59:10;;;;;;;1.48;0.98;;;;;;;;;;7074298;28;20081;-79
2021/05/26 11:02:31;;;;;;;3.72;1.13;;;;;;;;;;7068015;28;20093;-79
2021/05/26 11:05:52;;;;;;;2.28;1.40;;;;;;;;;;7076949;28;20496;-80
2021/05/26 11:09:12;;;;;;;4.20;1.13;;;;;;;;;;7054901;28;20078;-79
2021/05/26 11:12:54;;;;;;;2.20;1.10;;;;;;;;;;7079728;28;20051;-80
2021/05/26 11:16:16;;;;;;;10.30;1.35;;;;;;;;;;7066050;28;20047;-79
2021/05/26 11:19:37;;;;;;;2.47;1.25;;;;;;;;;;7064956;28;20484;-78
2021/05/26 11:23:09;;;;;;;3.92;1.40;;;;;;;;;;7079242;28;20130;-78
2021/05/26 11:26:35;;;;;;;1.80;1.05;;;;;;;;;;7080661;28;20072;-79
2021/05/26 11:29:57;;;;;;;5.38;1.58;;;;;;;;;;7081431;28;20047;-79
2021/05/26 11:33:17;;;;;;;1.27;1.15;;;;;;;;;;7079909;28;20049;-78
2021/05/26 11:36:45;;;;;;;3.50;1.50;;;;;;;;;;7067899;28;20079;-79
2021/05/26 11:40:25;;;;;;;3.22;1.42;;;;;;;;;;7078203;28;20067;-81
2021/05/26 11:43:45;;;;;;;4.10;1.10;;;;;;;;;;7084516;27;20122;-78
2021/05/26 11:47:06;;;;;;;1.20;1.10;;;;;;;;;;7084139;28;20043;-78
2021/05/26 11:50:28;;;;;;;4.05;1.25;;;;;;;;;;7067581;28;20043;-79
2021/05/26 11:53:58;;;;;;;3.13;1.20;;;;;;;;;;7053398;28;20055;-79
2021/05/26 11:57:18;;;;;;;4.10;1.70;;;;;;;;;;7080152;28;20125;-80
2021/05/26 12:00:39;;;;;;;2.05;1.08;;;;;;;;;;7064578;28;20055;-79
2021/05/26 12:04:01;;;;;;;5.70;1.35;;;;;;;;;;7082066;28;20055;-81
2021/05/26 12:07:26;;;;;;;1.92;1.23;;;;;;;;;;7061659;28;20043;-81
2021/05/26 12:11:03;;;;;;;9.00;1.50;;;;;;;;;;7059306;28;20043;-83
2021/05/26 12:14:25;;;;;;;5.85;1.70;;;;;;;;;;7062983;28;20039;-84
2021/05/26 12:17:46;;;;;;;3.85;1.30;;;;;;;;;;7081402;28;20130;-84
2021/05/26 12:21:06;;;;;;;5.55;1.23;;;;;;;;;;7072413;28;20047;-84
2021/05/26 12:24:27;;;;;;;2.65;1.05;;;;;;;;;;7069974;28;20127;-80
2021/05/26 12:27:48;;;;;;;3.58;1.10;;;;;;;;;;7058121;28;20089;-80
2021/05/26 12:31:13;;;;;;;8.15;1.50;;;;;;;;;;7106326;22;20051;-82
2021/05/26 12:34:33;;;;;;;2.33;1.20;;;;;;;;;;7035902;28;20059;-80
2021/05/26 12:37:55;;;;;;;3.65;1.40;;;;;;;;;;7052895;28;20374;-81
2021/05/26 12:41:20;;;;;;;5.85;1.40;;;;;;;;;;7049669;28;20054;-82
2021/05/26 12:44:41;;;;;;;3.50;1.50;;;;;;;;;;7047130;28;20048;-82
2021/05/26 12:48:12;;;;;;;5.30;1.38;;;;;;;;;;7048001;28;20130;-82
2021/05/26 12:51:40;;;;;;;3.00;1.20;;;;;;;;;;7050546;28;20039;-83
2021/05/26 12:55:08;;;;;;;6.13;1.48;;;;;;;;;;7035231;28;20048;-81
2021/05/26 12:58:29;;;;;;;7.20;1.63;;;;;;;;;;7044118;28;20064;-81
2021/05/26 13:02:12;;;;;;;4.32;1.70;;;;;;;;;;7031358;28;20035;-81
2021/05/26 13:05:45;;;;;;;9.93;1.70;;;;;;;;;;7052713;28;20070;-81
2021/05/26 13:09:11;;;;;;;7.15;1.73;;;;;;;;;;7048896;28;20062;-83
2021/05/26 13:12:31;;;;;;;3.78;1.90;;;;;;;;;;7039596;28;20070;-83
2021/05/26 13:15:53;;;;;;;3.67;1.60;;;;;;;;;;7052381;28;20452;-80
2021/05/26 13:19:14;;;;;;;5.18;1.70;;;;;;;;;;7052233;28;20051;-82
2021/05/26 13:22:35;;;;;;;6.25;1.60;;;;;;;;;;7049916;28;20050;-83
2021/05/26 13:25:58;;;;;;;7.32;1.80;;;;;;;;;;7048428;28;20370;-82
2021/05/26 13:29:18;;;;;;;3.63;1.52;;;;;;;;;;7048760;28;20051;-83
2021/05/26 13:32:39;;;;;;;7.63;2.10;;;;;;;;;;7053282;28;20051;-81
2021/05/26 13:36:00;;;;;;;4.75;1.92;;;;;;;;;;7051002;28;20058;-82
2021/05/26 13:39:20;;;;;;;9.50;1.70;;;;;;;;;;7051236;28;20385;-81
2021/05/26 13:42:40;;;;;;;6.32;1.60;;;;;;;;;;7050576;28;20043;-82
2021/05/26 13:46:01;;;;;;;4.38;1.70;;;;;;;;;;7052421;28;20475;-81
2021/05/26 13:49:22;;;;;;;2.78;1.67;;;;;;;;;;7053594;28;20085;-81
2021/05/26 13:52:47;;;;;;;3.25;1.60;;;;;;;;;;7053888;28;20100;-81
2021/05/26 13:56:11;;;;;;;3.97;1.60;;;;;;;;;;7034374;28;20043;-81
2021/05/26 13:59:32;;;;;;;3.33;1.70;;;;;;;;;;7035089;28;20393;-81
2021/05/26 14:02:52;;;;;;;2.33;1.77;;;;;;;;;;7052419;28;20496;-81
2021/05/26 14:06:13;;;;;;;10.52;2.22;;;;;;;;;;7051900;28;20047;-81
2021/05/26 14:09:33;;;;;;;5.68;2.35;;;;;;;;;;7051150;28;20942;-80
2021/05/26 14:12:57;;;;;;;9.40;1.58;;;;;;;;;;7052115;28;20501;-80
2021/05/26 14:16:19;;;;;;;4.05;1.40;;;;;;;;;;7051381;28;20166;-82
2021/05/26 14:19:39;;;;;;;3.28;1.90;;;;;;;;;;7050966;28;20056;-81
2021/05/26 14:23:00;;;;;;;4.00;1.52;;;;;;;;;;7045990;28;20048;-82
2021/05/26 14:26:21;;;;;;;3.40;1.83;;;;;;;;;;7051007;28;20470;-81
2021/05/26 14:29:42;;;;;;;3.63;1.67;;;;;;;;;;7051020;28;20047;-81
2021/05/26 14:33:05;;;;;;;4.55;1.77;;;;;;;;;;7050869;28;20549;-82
2021/05/26 14:36:29;;;;;;;3.10;1.70;;;;;;;;;;7051746;28;20044;-81
2021/05/26 14:39:51;;;;;;;2.33;1.63;;;;;;;;;;7050994;28;20460;-82
2021/05/26 14:43:15;;;;;;;3.92;1.50;;;;;;;;;;7052317;28;20055;-83
2021/05/26 14:46:39;;;;;;;3.58;1.65;;;;;;;;;;7051703;28;20092;-82
2021/05/26 14:49:59;;;;;;;2.85;1.50;;;;;;;;;;7051547;28;20158;-82
2021/05/26 14:53:20;;;;;;;2.60;1.50;;;;;;;;;;7050983;28;20477;-82
2021/05/26 14:56:41;;;;;;;4.50;1.70;;;;;;;;;;7051631;28;20054;-83
2021/05/26 15:00:03;;;;;;;3.20;1.38;;;;;;;;;;7050546;28;20504;-83
2021/05/26 15:03:24;;;;;;;3.28;1.67;;;;;;;;;;7032086;28;20045;-82
2021/05/26 15:06:44;;;;;;;1.67;1.38;;;;;;;;;;7049984;28;20052;-82
2021/05/26 15:10:08;;;;;;;2.67;1.70;;;;;;;;;;7050405;28;20472;-81
2021/05/26 15:13:29;;;;;;;3.22;2.03;;;;;;;;;;7050446;28;20046;-83
2021/05/26 15:16:49;;;;;;;5.13;1.63;;;;;;;;;;7028976;28;20047;-82
2021/05/26 15:20:10;;;;;;;3.75;1.58;;;;;;;;;;7049921;28;20126;-83
2021/05/26 15:23:30;;;;;;;5.00;1.80;;;;;;;;;;7045941;28;20040;-82
2021/05/26 15:26:51;;;;;;;4.40;1.83;;;;;;;;;;7049028;28;20196;-82
2021/05/26 15:30:12;;;;;;;2.63;1.52;;;;;;;;;;7049931;28;20486;-82
2021/05/26 15:33:32;;;;;;;1.98;1.50;;;;;;;;;;7030033;28;20059;-82
2021/05/26 15:36:53;;;;;;;1.85;1.50;;;;;;;;;;7043733;28;20142;-83
2021/05/26 15:40:13;;;;;;;2.17;1.60;;;;;;;;;;7040722;28;20070;-83
2021/05/26 15:43:34;;;;;;;3.20;1.60;;;;;;;;;;7047573;28;20511;-82
2021/05/26 15:46:54;;;;;;;1.88;1.58;;;;;;;;;;7043182;28;20132;-82
2021/05/26 15:50:15;;;;;;;3.28;1.60;;;;;;;;;;7049465;28;20082;-82
2021/05/26 15:53:35;;;;;;;3.00;1.50;;;;;;;;;;7041920;28;20121;-83
2021/05/26 15:56:55;;;;;;;2.22;1.60;;;;;;;;;;7049851;28;20511;-82
2021/05/26 16:00:25;;;;;;;2.15;1.80;;;;;;;;;;7037784;28;20052;-82
2021/05/26 16:03:46;;;;;;;2.95;1.60;;;;;;;;;;7049060;28;20430;-82
2021/05/26 16:07:07;;;;;;;3.28;1.83;;;;;;;;;;7049448;28;20056;-82
2021/05/26 16:10:27;;;;;;;4.25;1.55;;;;;;;;;;7048426;28;20122;-82
2021/05/26 16:13:47;;;;;;;1.73;1.58;;;;;;;;;;7048639;28;20071;-81
2021/05/26 16:17:08;;;;;;;2.95;1.58;;;;;;;;;;7048965;28;20134;-81
2021/05/26 16:20:28;;;;;;;1.52;1.42;;;;;;;;;;7048959;28;20040;-82
2021/05/26 16:23:49;;;;;;;3.00;1.48;;;;;;;;;;7029759;28;20434;-82
2021/05/26 16:27:09;;;;;;;4.45;1.40;;;;;;;;;;7049424;28;20087;-81
2021/05/26 16:30:30;;;;;;;3.65;1.58;;;;;;;;;;7054081;28;20040;-81
2021/05/26 16:33:53;;;;;;;4.38;1.70;;;;;;;;;;7054530;28;20432;-82
2021/05/26 16:37:13;;;;;;;5.68;1.70;;;;;;;;;;7051576;28;20092;-82
2021/05/26 16:40:34;;;;;;;4.25;1.65;;;;;;;;;;7055233;28;20039;-82
2021/05/26 16:43:55;;;;;;;2.95;1.70;;;;;;;;;;7052737;28;20051;-82
2021/05/26 16:47:17;;;;;;;4.60;1.70;;;;;;;;;;7054750;28;20055;-81
2021/05/26 16:50:38;;;;;;;2.38;1.63;;;;;;;;;;7054422;28;20050;-83
2021/05/26 16:54:01;;;;;;;2.72;2.15;;;;;;;;;;7054667;28;20131;-84
2021/05/26 16:57:22;;;;;;;4.97;2.10;;;;;;;;;;7053799;28;20047;-82
2021/05/26 17:00:42;;;;;;;4.50;1.60;;;;;;;;;;7053336;28;20134;-82
2021/05/26 17:04:03;;;;;;;2.65;1.70;;;;;;;;;;7053935;28;20119;-82
2021/05/26 17:07:23;;;;;;;2.30;1.63;;;;;;;;;;7051955;28;20051;-83
2021/05/26 17:10:45;;;;;;;5.80;1.83;;;;;;;;;;7038902;28;20393;-83
2021/05/26 17:14:07;;;;;;;6.55;1.92;;;;;;;;;;7051916;28;20126;-82
2021/05/26 17:17:27;;;;;;;3.25;1.92;;;;;;;;;;7052738;28;20049;-84
2021/05/26 17:20:48;;;;;;;6.05;2.22;;;;;;;;;;7052568;28;20040;-82
2021/05/26 17:24:08;;;;;;;5.32;1.92;;;;;;;;;;7052342;28;20150;-84
2021/05/26 17:27:29;;;;;;;4.68;1.92;;;;;;;;;;7049776;28;20393;-83
2021/05/26 17:30:49;;;;;;;3.35;2.00;;;;;;;;;;7049299;28;20130;-80
2021/05/26 17:34:10;;;;;;;2.15;1.92;;;;;;;;;;7053779;28;20051;-82
2021/05/26 17:37:30;;;;;;;5.65;1.90;;;;;;;;;;7049677;28;20043;-82
2021/05/26 17:40:51;;;;;;;3.97;1.73;;;;;;;;;;7052900;28;20047;-82
2021/05/26 17:44:12;;;;;;;6.03;2.38;;;;;;;;;;7053415;28;20134;-82
2021/05/26 17:47:33;;;;;;;9.55;1.80;;;;;;;;;;7051318;28;20123;-82
2021/05/26 17:50:53;;;;;;;3.72;1.98;;;;;;;;;;7052298;28;20100;-83
2021/05/26 17:54:14;;;;;;;2.58;1.75;;;;;;;;;;7052198;28;20043;-83
2021/05/26 17:57:34;;;;;;;2.55;1.80;;;;;;;;;;7035373;28;20485;-82
2021/05/26 18:00:55;;;;;;;6.45;2.00;;;;;;;;;;7040537;28;20052;-82
2021/05/26 18:04:15;;;;;;;7.10;2.30;;;;;;;;;;7032230;28;20404;-83
2021/05/26 18:07:37;;;;;;;5.07;2.10;;;;;;;;;;7050493;28;20096;-82
2021/05/26 18:10:58;;;;;;;8.73;1.80;;;;;;;;;;7050391;28;20044;-82
2021/05/26 18:14:18;;;;;;;4.88;1.98;;;;;;;;;;7051680;28;20047;-82
2021/05/26 18:17:39;;;;;;;2.88;1.85;;;;;;;;;;7050283;28;20055;-82
2021/05/26 18:21:00;;;;;;;6.20;2.22;;;;;;;;;;7033355;28;20078;-81
2021/05/26 18:24:20;;;;;;;11.20;2.40;;;;;;;;;;7048789;28;20044;-82
2021/05/26 18:27:42;;;;;;;6.00;2.40;;;;;;;;;;7051952;28;20043;-81
2021/05/26 18:31:02;;;;;;;5.90;2.75;;;;;;;;;;7050680;28;20442;-81
2021/05/26 18:34:23;;;;;;;3.90;2.13;;;;;;;;;;7029585;28;20493;-82
2021/05/26 18:37:44;;;;;;;6.72;2.50;;;;;;;;;;7051272;28;20047;-82
2021/05/26 18:41:05;;;;;;;7.40;2.72;;;;;;;;;;7050134;28;20092;-82
2021/05/26 18:44:25;;;;;;;5.05;2.45;;;;;;;;;;7045707;28;20139;-82
2021/05/26 18:47:46;;;;;;;7.22;2.58;;;;;;;;;;7051123;28;20481;-82
2021/05/26 18:51:06;;;;;;;8.75;2.72;;;;;;;;;;7051320;28;20074;-81
2021/05/26 18:54:26;;;;;;;6.03;2.40;;;;;;;;;;7048996;28;20051;-82
2021/05/26 18:57:47;;;;;;;8.10;2.50;;;;;;;;;;7050399;28;20094;-82
2021/05/26 19:01:07;;;;;;;12.38;2.83;;;;;;;;;;7050386;28;20043;-82
2021/05/26 19:04:28;;;;;;;4.88;2.35;;;;;;;;;;7039377;28;20059;-83
2021/05/26 19:07:49;;;;;;;6.90;3.08;;;;;;;;;;7050485;28;20128;-83
2021/05/26 19:11:11;;;;;;;9.63;2.40;;;;;;;;;;7048867;28;20066;-82
2021/05/26 19:14:31;;;;;;;8.02;2.40;;;;;;;;;;7044533;28;20043;-83
2021/05/26 19:17:52;;;;;;;8.75;2.42;;;;;;;;;;7050663;28;20520;-82
2021/05/26 19:21:14;;;;;;;9.38;3.00;;;;;;;;;;7051021;28;20093;-82
2021/05/26 19:24:34;;;;;;;9.05;2.17;;;;;;;;;;7050566;28;20051;-83
2021/05/26 19:27:56;;;;;;;6.75;2.55;;;;;;;;;;7045980;28;20048;-81
2021/05/26 19:31:17;;;;;;;13.52;2.90;;;;;;;;;;7037778;28;20060;-82
2021/05/26 19:34:39;;;;;;;7.10;2.42;;;;;;;;;;7050921;28;20100;-82
2021/05/26 19:38:02;;;;;;;7.20;2.75;;;;;;;;;;7037174;28;20050;-81
2021/05/26 19:41:22;;;;;;;6.82;2.30;;;;;;;;;;7050968;28;20055;-81
2021/05/26 19:44:43;;;;;;;5.97;2.17;;;;;;;;;;7049633;28;20167;-81
2021/05/26 19:48:04;;;;;;;6.00;2.38;;;;;;;;;;7044217;28;20495;-82
2021/05/26 19:51:24;;;;;;;3.83;2.10;;;;;;;;;;7042080;28;20052;-83
2021/05/26 19:54:45;;;;;;;8.10;2.60;;;;;;;;;;7046681;28;20054;-83
2021/05/26 19:58:05;;;;;;;5.32;2.67;;;;;;;;;;7048680;28;20127;-82
2021/05/26 20:01:26;;;;;;;7.32;2.40;;;;;;;;;;7051118;28;20055;-82
2021/05/26 20:04:46;;;;;;;6.15;2.00;;;;;;;;;;7036233;28;20128;-82
2021/05/26 20:08:07;;;;;;;4.72;1.92;;;;;;;;;;7047539;28;20158;-83
2021/05/26 20:11:27;;;;;;;7.00;2.20;;;;;;;;;;7052661;28;20043;-82
2021/05/26 20:14:54;;;;;;;11.75;2.65;;;;;;;;;;7049874;28;20401;-82